createdAt,value
2023-01-10T00:03:17.569Z,64.30
2023-01-10T00:06:53.548Z,60.70
2023-01-10T00:10:35.646Z,65.20
2023-01-10T00:13:32.905Z,59.20
2023-01-10T00:16:42.787Z,66.60
2023-01-10T00:20:12.594Z,64.20
2023-01-10T00:23:18.422Z,62.10
2023-01-10T00:26:46.278Z,59.90
2023-01-10T00:30:28.910Z,59.60
2023-01-10T00:33:46.892Z,62.00
2023-01-10T00:37:41.824Z,60.60
2023-01-10T00:41:01.179Z,59.10
2023-01-10T00:44:32.559Z,59.20
2023-01-10T00:48:04.829Z,60.10
2023-01-10T00:51:51.113Z,59.60
2023-01-10T00:55:45.150Z,59.30
2023-01-10T00:59:41.990Z,58.80
2023-01-10T01:03:14.360Z,63.20
2023-01-10T01:07:18.178Z,64.20
2023-01-10T01:10:49.393Z,58.20
2023-01-10T01:14:35.808Z,67.60
2023-01-10T01:18:05.627Z,56.40
2023-01-10T01:22:02.279Z,59.40
2023-01-10T01:25:37.313Z,49.10
2023-01-10T01:29:29.963Z,48.70
2023-01-10T01:33:11.900Z,52.80
2023-01-10T01:36:58.287Z,45.80
2023-01-10T01:40:45.038Z,48.30
2023-01-10T01:44:23.595Z,47.40
2023-01-10T01:48:00.137Z,45.00
2023-01-10T01:51:16.025Z,47.00
2023-01-10T01:54:23.165Z,48.00
2023-01-10T01:57:41.183Z,41.40
2023-01-10T02:00:41.721Z,43.40
2023-01-10T02:03:49.341Z,44.30
2023-01-10T02:06:32.417Z,48.30
2023-01-10T02:09:28.331Z,45.10
2023-01-10T02:12:14.079Z,42.60
2023-01-10T02:14:58.658Z,42.00
2023-01-10T02:17:41.987Z,47.10
2023-01-10T02:20:28.893Z,46.10
2023-01-10T02:24:09.405Z,41.30
2023-01-10T02:27:11.074Z,38.50
2023-01-10T02:30:12.567Z,46.80
2023-01-10T02:33:05.870Z,39.70
2023-01-10T02:36:13.531Z,41.30
2023-01-10T02:39:12.883Z,65.30
2023-01-10T02:42:05.231Z,36.30
2023-01-10T02:44:48.065Z,38.80
2023-01-10T02:50:41.550Z,35.30
2023-01-10T02:53:40.007Z,33.70
2023-01-10T02:56:25.625Z,35.90
2023-01-10T02:59:46.488Z,35.30
2023-01-10T03:02:49.915Z,37.40
2023-01-10T03:05:55.362Z,37.40
2023-01-10T03:09:04.979Z,36.70
2023-01-10T03:11:52.311Z,36.10
2023-01-10T03:14:38.588Z,37.40
2023-01-10T03:17:24.661Z,35.70
2023-01-10T03:20:09.044Z,37.90
2023-01-10T03:22:55.535Z,34.60
2023-01-10T03:25:40.210Z,38.30
2023-01-10T03:28:42.143Z,33.70
2023-01-10T03:31:35.975Z,33.80
2023-01-10T03:34:20.044Z,34.10
2023-01-10T03:37:16.263Z,28.70
2023-01-10T03:40:09.576Z,30.00
2023-01-10T03:43:22.193Z,34.40
2023-01-10T03:46:27.764Z,28.30
2023-01-10T03:49:13.702Z,32.40
2023-01-10T03:51:58.907Z,31.60
2023-01-10T03:54:45.719Z,30.70
2023-01-10T03:57:28.552Z,37.50
2023-01-10T04:00:13.449Z,36.30
2023-01-10T04:02:58.301Z,29.40
2023-01-10T04:05:41.147Z,29.90
2023-01-10T04:11:06.746Z,29.50
2023-01-10T04:16:32.395Z,30.60
2023-01-10T04:19:15.207Z,31.20
2023-01-10T04:24:40.943Z,29.90
2023-01-10T04:27:24.566Z,33.90
2023-01-10T04:30:08.900Z,31.30
2023-01-10T04:32:51.832Z,30.70
2023-01-10T04:35:34.657Z,29.30
2023-01-10T04:41:00.450Z,25.50
2023-01-10T04:46:26.282Z,24.40
2023-01-10T04:49:12.407Z,31.70
2023-01-10T04:51:55.341Z,31.80
2023-01-10T04:54:38.383Z,31.10
2023-01-10T04:57:21.386Z,31.50
2023-01-10T05:00:04.852Z,30.00
2023-01-10T05:02:47.944Z,30.90
2023-01-10T05:05:32.012Z,33.00
2023-01-10T05:08:14.899Z,30.60
2023-01-10T05:13:41.380Z,27.90
2023-01-10T05:16:25.596Z,29.80
2023-01-10T05:19:08.763Z,31.50
2023-01-10T05:21:53.360Z,30.00
2023-01-10T05:24:36.183Z,31.10
2023-01-10T05:30:01.838Z,26.80
2023-01-10T05:32:44.932Z,30.60
2023-01-10T05:35:27.802Z,31.00
2023-01-10T05:40:59.064Z,30.50
2023-01-10T05:43:42.020Z,28.60
2023-01-10T05:46:24.952Z,33.80
2023-01-10T05:49:07.867Z,32.30
2023-01-10T05:51:50.867Z,30.40
2023-01-10T05:54:33.799Z,36.50
2023-01-10T05:57:16.688Z,29.20
2023-01-10T05:59:59.583Z,26.50
2023-01-10T06:02:42.669Z,28.40
2023-01-10T06:05:25.766Z,30.50
2023-01-10T06:08:08.587Z,27.80
2023-01-10T06:13:34.283Z,32.80
2023-01-10T06:16:17.152Z,26.30
2023-01-10T06:19:00.072Z,28.30
2023-01-10T06:21:43.089Z,28.70
2023-01-10T06:24:25.926Z,27.00
2023-01-10T06:29:51.486Z,34.60
2023-01-10T06:35:18.204Z,28.70
2023-01-10T06:38:01.151Z,35.90
2023-01-10T06:40:44.083Z,34.10
2023-01-10T06:43:26.981Z,34.60
2023-01-10T06:46:10.245Z,38.60
2023-01-10T06:48:53.134Z,35.70
2023-01-10T06:54:20.708Z,36.80
2023-01-10T06:57:03.675Z,38.30
2023-01-10T06:59:46.522Z,36.30
2023-01-10T07:02:29.431Z,36.40
2023-01-10T07:05:12.792Z,34.40
2023-01-10T07:07:57.930Z,32.50
2023-01-10T07:10:42.103Z,35.50
2023-01-10T07:13:25.080Z,30.50
2023-01-10T07:16:14.294Z,32.90
2023-01-10T07:18:58.391Z,33.20
2023-01-10T07:21:41.691Z,31.10
2023-01-10T07:24:24.477Z,28.30
2023-01-10T07:29:50.002Z,31.50
2023-01-10T07:35:16.997Z,34.20
2023-01-10T07:38:00.352Z,33.10
2023-01-10T07:40:44.370Z,31.00
2023-01-10T07:43:27.283Z,36.00
2023-01-10T07:48:55.365Z,31.50
2023-01-10T07:54:21.167Z,31.70
2023-01-10T07:57:04.043Z,29.50
2023-01-10T07:59:46.833Z,32.60
2023-01-10T08:02:29.822Z,32.60
2023-01-10T08:05:13.461Z,32.10
2023-01-10T08:08:00.128Z,32.80
2023-01-10T08:10:43.479Z,30.90
2023-01-10T08:13:26.921Z,34.60
2023-01-10T08:16:10.244Z,33.40
2023-01-10T08:18:53.353Z,31.20
2023-01-10T08:21:36.231Z,32.60
2023-01-10T08:24:18.998Z,33.70
2023-01-10T08:27:01.983Z,32.10
2023-01-10T08:29:44.991Z,33.80
2023-01-10T08:32:27.808Z,35.20
2023-01-10T08:35:11.541Z,32.40
2023-01-10T08:37:58.144Z,39.20
2023-01-10T08:40:41.152Z,41.30
2023-01-10T08:43:24.662Z,44.90
2023-01-10T08:46:07.929Z,40.50
2023-01-10T08:48:51.876Z,39.80
2023-01-10T08:51:35.186Z,38.60
2023-01-10T08:54:18.002Z,34.80
2023-01-10T08:59:43.833Z,34.30
2023-01-10T09:02:26.633Z,29.80
2023-01-10T09:05:22.271Z,32.10
2023-01-10T09:08:10.081Z,39.30
2023-01-10T09:10:53.408Z,30.20
2023-01-10T09:13:36.273Z,37.50
2023-01-10T09:16:19.402Z,36.50
2023-01-10T09:19:02.660Z,42.00
2023-01-10T09:21:45.484Z,34.90
2023-01-10T09:24:28.393Z,37.00
2023-01-10T09:29:54.279Z,33.60
2023-01-10T09:35:20.106Z,35.10
2023-01-10T09:38:04.250Z,38.70
2023-01-10T09:41:02.032Z,42.60
2023-01-10T09:44:05.183Z,38.10
2023-01-10T09:50:02.160Z,38.80
2023-01-10T09:52:51.015Z,38.30
2023-01-10T09:55:38.331Z,40.10
2023-01-10T09:58:29.491Z,35.40
2023-01-10T10:01:19.889Z,35.60
2023-01-10T10:04:30.472Z,33.80
2023-01-10T10:07:15.157Z,33.10
2023-01-10T10:09:58.458Z,32.20
2023-01-10T10:12:56.818Z,37.00
2023-01-10T10:15:52.753Z,30.70
2023-01-10T10:18:56.650Z,38.10
2023-01-10T10:22:00.710Z,30.90
2023-01-10T10:25:02.037Z,27.00
2023-01-10T10:28:21.699Z,31.40
2023-01-10T10:31:29.851Z,27.80
2023-01-10T10:34:46.406Z,28.60
2023-01-10T10:37:35.937Z,28.60
2023-01-10T10:40:23.135Z,29.60
2023-01-10T10:43:19.995Z,31.20
2023-01-10T10:46:05.833Z,31.80
2023-01-10T10:48:57.494Z,36.50
2023-01-10T10:51:51.174Z,32.30
2023-01-10T10:54:36.399Z,32.40
2023-01-10T10:57:22.120Z,31.30
2023-01-10T11:00:07.304Z,32.40
2023-01-10T11:02:54.540Z,35.90
2023-01-10T11:05:41.559Z,32.60
2023-01-10T11:08:24.567Z,32.70
2023-01-10T11:11:20.914Z,36.50
2023-01-10T11:14:06.265Z,36.20
2023-01-10T11:16:49.147Z,35.40
2023-01-10T11:19:32.102Z,37.80
2023-01-10T11:22:16.958Z,42.60
2023-01-10T11:25:02.201Z,45.30
2023-01-10T11:28:06.321Z,38.20
2023-01-10T11:30:51.071Z,43.00
2023-01-10T11:33:35.844Z,42.50
2023-01-10T11:36:18.676Z,48.10
2023-01-10T11:39:04.162Z,38.20
2023-01-10T11:41:49.376Z,45.30
2023-01-10T11:44:32.310Z,45.20
2023-01-10T11:47:16.248Z,48.00
2023-01-10T11:50:00.130Z,47.60
2023-01-10T11:52:46.472Z,53.50
2023-01-10T11:55:32.511Z,40.20
2023-01-10T11:58:15.544Z,49.90
2023-01-10T12:00:59.097Z,40.60
2023-01-10T12:03:42.074Z,38.20
2023-01-10T12:06:26.061Z,36.10
2023-01-10T12:09:45.410Z,45.50
2023-01-10T12:12:30.302Z,37.00
2023-01-10T12:15:28.150Z,35.40
2023-01-10T12:18:12.351Z,35.60
2023-01-10T12:20:58.056Z,39.20
2023-01-10T12:23:44.537Z,32.80
2023-01-10T12:26:31.135Z,36.60
2023-01-10T12:29:29.988Z,28.00
2023-01-10T12:32:22.689Z,29.70
2023-01-10T12:35:21.750Z,29.00
2023-01-10T12:38:47.335Z,31.70
2023-01-10T12:41:52.495Z,30.10
2023-01-10T12:44:42.027Z,32.20
2023-01-10T12:47:56.835Z,35.80
2023-01-10T12:50:45.085Z,28.90
2023-01-10T12:53:36.519Z,29.50
2023-01-10T12:56:20.702Z,32.80
2023-01-10T12:59:36.710Z,31.50
2023-01-10T13:02:24.318Z,30.50
2023-01-10T13:05:22.406Z,26.80
2023-01-10T13:08:17.728Z,25.50
2023-01-10T13:11:02.356Z,24.50
2023-01-10T13:13:53.463Z,24.80
2023-01-10T13:16:49.163Z,26.90
2023-01-10T13:19:32.051Z,27.20
2023-01-10T13:22:23.609Z,30.20
2023-01-10T13:25:06.869Z,26.60
2023-01-10T13:28:22.679Z,27.60
2023-01-10T13:31:21.829Z,28.20
2023-01-10T13:34:13.058Z,37.50
2023-01-10T13:37:03.271Z,40.50
2023-01-10T13:39:53.975Z,26.90
2023-01-10T13:42:55.887Z,28.30
2023-01-10T13:45:41.517Z,22.20
2023-01-10T13:48:27.928Z,21.80
2023-01-10T13:51:16.891Z,23.40
2023-01-10T13:54:02.558Z,21.50
2023-01-10T13:56:45.869Z,21.70
2023-01-10T13:59:47.252Z,28.30
2023-01-10T14:02:31.593Z,34.00
2023-01-10T14:05:18.501Z,39.60
2023-01-10T14:08:02.554Z,44.40
2023-01-10T14:11:06.134Z,40.50
2023-01-10T14:13:53.875Z,32.10
2023-01-10T14:19:28.739Z,44.00
2023-01-10T14:22:43.824Z,41.70
2023-01-10T14:25:28.829Z,29.20
2023-01-10T14:28:25.130Z,27.50
2023-01-10T14:31:29.173Z,24.40
2023-01-10T14:34:20.870Z,28.00
2023-01-10T14:37:09.790Z,30.90
2023-01-10T14:39:54.018Z,29.10
2023-01-10T14:42:37.775Z,33.10
2023-01-10T14:45:31.528Z,29.20
2023-01-10T14:48:27.441Z,34.10
2023-01-10T14:51:17.421Z,33.00
2023-01-10T14:54:23.464Z,36.50
2023-01-10T14:57:17.935Z,41.90
2023-01-10T15:00:13.878Z,42.70
2023-01-10T15:03:01.633Z,45.10
2023-01-10T15:05:52.249Z,35.50
2023-01-10T15:08:35.175Z,33.90
2023-01-10T15:11:18.407Z,33.00
2023-01-10T15:14:08.313Z,30.60
2023-01-10T15:16:55.479Z,31.00
2023-01-10T15:19:40.566Z,29.50
2023-01-10T15:22:32.806Z,35.40
2023-01-10T15:25:18.838Z,39.50
2023-01-10T15:28:03.029Z,36.20
2023-01-10T15:30:46.844Z,39.30
2023-01-10T15:33:33.017Z,39.90
2023-01-10T15:36:19.635Z,44.80
2023-01-10T15:39:02.710Z,37.60
2023-01-10T15:41:46.176Z,40.20
2023-01-10T15:44:36.877Z,39.50
2023-01-10T15:47:44.549Z,43.70
2023-01-10T15:50:40.817Z,41.30
2023-01-10T15:54:03.307Z,43.20
2023-01-10T15:57:04.582Z,40.00
2023-01-10T15:59:50.353Z,36.40
2023-01-10T16:02:34.252Z,44.90
2023-01-10T16:05:18.221Z,40.60
2023-01-10T16:08:04.504Z,41.60
2023-01-10T16:10:56.198Z,41.60
2023-01-10T16:13:39.098Z,43.00
2023-01-10T16:16:22.102Z,39.00
2023-01-10T16:19:05.336Z,41.20
2023-01-10T16:21:53.959Z,38.50
2023-01-10T16:24:42.109Z,38.30
2023-01-10T16:27:25.008Z,37.70
2023-01-10T16:30:21.867Z,35.10
2023-01-10T16:33:13.091Z,37.90
2023-01-10T16:35:58.211Z,49.40
2023-01-10T16:38:41.899Z,53.70
2023-01-10T16:41:43.462Z,59.60
2023-01-10T16:44:26.292Z,64.90
2023-01-10T16:47:09.106Z,84.00
2023-01-10T16:49:52.080Z,79.90
2023-01-10T16:52:34.960Z,64.90
2023-01-10T16:55:22.709Z,62.00
2023-01-10T16:58:05.597Z,55.50
2023-01-10T17:00:52.611Z,53.60
2023-01-10T17:03:39.679Z,54.50
2023-01-10T17:06:22.553Z,48.50
2023-01-10T17:09:05.526Z,58.20
2023-01-10T17:11:54.490Z,55.80
2023-01-10T17:14:38.891Z,47.10
2023-01-10T17:17:21.747Z,48.50
2023-01-10T17:20:06.195Z,47.30
2023-01-10T17:22:49.121Z,54.20
2023-01-10T17:25:32.634Z,47.90
2023-01-10T17:28:15.727Z,51.10
2023-01-10T17:30:59.236Z,45.60
2023-01-10T17:33:42.430Z,45.90
2023-01-10T17:36:29.842Z,46.90
2023-01-10T17:39:12.763Z,42.80
2023-01-10T17:41:59.737Z,40.90
2023-01-10T17:44:44.028Z,41.10
2023-01-10T17:47:27.023Z,43.80
2023-01-10T17:50:09.876Z,37.40
2023-01-10T17:52:52.812Z,37.00
2023-01-10T17:55:37.774Z,35.20
2023-01-10T17:58:22.545Z,38.50
2023-01-10T18:01:10.757Z,35.90
2023-01-10T18:03:54.231Z,36.00
2023-01-10T18:06:37.175Z,35.70
2023-01-10T18:09:20.268Z,33.20
2023-01-10T18:12:03.268Z,39.60
2023-01-10T18:14:55.141Z,40.60
2023-01-10T18:17:38.822Z,36.50
2023-01-10T18:20:21.742Z,39.10
2023-01-10T18:23:23.191Z,41.70
2023-01-10T18:26:10.850Z,36.60
2023-01-10T18:28:54.347Z,35.20
2023-01-10T18:31:37.197Z,39.60
2023-01-10T18:34:20.314Z,38.30
2023-01-10T18:37:04.557Z,34.10
2023-01-10T18:39:49.612Z,37.90
2023-01-10T18:42:32.890Z,31.20
2023-01-10T18:45:16.723Z,33.00
2023-01-10T18:48:01.748Z,34.60
2023-01-10T18:50:47.289Z,30.20
2023-01-10T18:53:31.110Z,34.50
2023-01-10T18:56:14.987Z,29.90
2023-01-10T18:58:58.868Z,33.90
2023-01-10T19:01:42.026Z,31.70
2023-01-10T19:04:25.118Z,36.40
2023-01-10T19:07:08.457Z,35.90
2023-01-10T19:09:51.378Z,39.10
2023-01-10T19:12:34.488Z,38.90
2023-01-10T19:15:17.413Z,43.60
2023-01-10T19:18:00.572Z,35.00
2023-01-10T19:20:43.648Z,41.80
2023-01-10T19:23:26.627Z,47.70
2023-01-10T19:26:09.933Z,48.50
2023-01-10T19:28:53.961Z,44.00
2023-01-10T19:31:39.943Z,37.60
2023-01-10T19:34:23.127Z,39.20
2023-01-10T19:37:06.658Z,41.40
2023-01-10T19:39:49.552Z,41.00
2023-01-10T19:42:36.379Z,40.20
2023-01-10T19:45:19.316Z,41.20
2023-01-10T19:48:03.897Z,41.20
2023-01-10T19:50:47.155Z,40.30
2023-01-10T19:53:30.081Z,41.80
2023-01-10T19:56:24.995Z,40.20
2023-01-10T19:59:08.216Z,54.70
2023-01-10T20:01:51.210Z,42.90
2023-01-10T20:04:34.410Z,47.90
2023-01-10T20:07:18.724Z,51.30
2023-01-10T20:10:01.967Z,56.70
2023-01-10T20:12:45.428Z,53.10
2023-01-10T20:15:28.353Z,52.00
2023-01-10T20:18:11.255Z,47.40
2023-01-10T20:20:54.155Z,49.30
2023-01-10T20:23:39.676Z,54.90
2023-01-10T20:26:27.913Z,51.60
2023-01-10T20:29:12.334Z,51.40
2023-01-10T20:31:57.608Z,57.10
2023-01-10T20:34:41.512Z,50.00
2023-01-10T20:37:25.118Z,57.70
2023-01-10T20:40:12.077Z,53.60
2023-01-10T20:42:55.099Z,52.30
2023-01-10T20:45:38.328Z,51.90
2023-01-10T20:48:22.264Z,54.90
2023-01-10T20:51:06.722Z,57.00
2023-01-10T20:53:50.621Z,55.60
2023-01-10T20:56:35.438Z,53.80
2023-01-10T20:59:18.326Z,58.00
2023-01-10T21:02:02.329Z,59.00
2023-01-10T21:04:45.484Z,63.40
2023-01-10T21:07:29.423Z,59.20
2023-01-10T21:10:12.938Z,65.80
2023-01-10T21:12:56.173Z,63.00
2023-01-10T21:15:41.050Z,55.80
2023-01-10T21:18:30.594Z,57.00
2023-01-10T21:21:16.058Z,60.50
2023-01-10T21:23:58.868Z,55.50
2023-01-10T21:26:41.887Z,64.90
2023-01-10T21:29:24.843Z,56.90
2023-01-10T21:32:09.302Z,60.70
2023-01-10T21:34:53.296Z,60.10
2023-01-10T21:37:36.209Z,53.40
2023-01-10T21:40:19.326Z,62.90
2023-01-10T21:43:02.798Z,56.30
2023-01-10T21:45:45.832Z,54.30
2023-01-10T21:48:30.122Z,55.20
2023-01-10T21:51:16.503Z,55.20
2023-01-10T21:54:00.379Z,54.10
2023-01-10T21:56:43.366Z,57.00
2023-01-10T21:59:26.385Z,53.20
2023-01-10T22:02:15.168Z,51.30
2023-01-10T22:04:58.150Z,49.70
2023-01-10T22:07:44.931Z,51.70
2023-01-10T22:10:27.755Z,52.50
2023-01-10T22:13:10.582Z,50.00
2023-01-10T22:18:45.951Z,57.00
2023-01-10T22:24:12.087Z,51.50
2023-01-10T22:26:55.873Z,55.70
2023-01-10T22:29:38.731Z,50.40
2023-01-10T22:32:21.624Z,51.50
2023-01-10T22:35:04.911Z,56.10
2023-01-10T22:37:47.875Z,54.10
2023-01-10T22:40:30.786Z,57.00
2023-01-10T22:43:13.751Z,62.10
2023-01-10T22:45:56.585Z,54.70
2023-01-10T22:48:39.499Z,59.10
2023-01-10T22:51:24.157Z,55.40
2023-01-10T22:54:07.278Z,59.60
2023-01-10T22:56:50.526Z,59.30
2023-01-10T22:59:34.967Z,52.00
2023-01-10T23:02:17.961Z,50.10
2023-01-10T23:05:01.013Z,53.50
2023-01-10T23:07:44.019Z,54.20
2023-01-10T23:10:30.656Z,53.30
2023-01-10T23:13:15.840Z,50.50
2023-01-10T23:16:08.291Z,50.30
2023-01-10T23:18:51.182Z,56.90
2023-01-10T23:21:34.167Z,59.00
2023-01-10T23:24:17.167Z,55.70
2023-01-10T23:27:01.106Z,54.10
2023-01-10T23:29:43.904Z,51.50
2023-01-10T23:35:11.531Z,52.30
2023-01-10T23:37:54.504Z,47.10
2023-01-10T23:40:37.420Z,43.60
2023-01-10T23:43:20.432Z,50.50
2023-01-10T23:46:04.657Z,49.70
2023-01-10T23:48:48.554Z,48.70
2023-01-10T23:51:32.575Z,48.10
2023-01-10T23:54:17.339Z,42.30
2023-01-10T23:57:00.431Z,44.30
2023-01-10T23:59:44.431Z,47.20
